createdAt,value
2018-08-17T00:00:01.668Z,2.60
2018-08-17T00:02:29.527Z,2.92
2018-08-17T00:04:57.151Z,2.90
2018-08-17T00:07:24.735Z,2.87
2018-08-17T00:09:52.636Z,2.77
2018-08-17T00:12:20.232Z,3.05
2018-08-17T00:14:48.040Z,2.98
2018-08-17T00:17:15.648Z,2.55
2018-08-17T00:19:43.274Z,2.50
2018-08-17T00:22:10.881Z,2.65
2018-08-17T00:24:38.454Z,2.60
2018-08-17T00:27:06.064Z,2.80
2018-08-17T00:29:33.640Z,2.95
2018-08-17T00:32:01.253Z,3.20
2018-08-17T00:34:28.836Z,3.02
2018-08-17T00:36:56.413Z,3.00
2018-08-17T00:39:24.048Z,2.87
2018-08-17T00:41:51.604Z,2.70
2018-08-17T00:44:19.201Z,2.45
2018-08-17T00:46:46.780Z,2.60
2018-08-17T00:49:14.385Z,2.30
2018-08-17T00:51:41.987Z,2.40
2018-08-17T00:54:09.790Z,2.35
2018-08-17T00:56:37.369Z,2.58
2018-08-17T00:59:04.947Z,2.52
2018-08-17T01:01:32.546Z,2.80
2018-08-17T01:04:00.124Z,2.02
2018-08-17T01:06:27.699Z,2.40
2018-08-17T01:08:55.297Z,2.50
2018-08-17T01:11:22.913Z,2.50
2018-08-17T01:13:50.532Z,2.92
2018-08-17T01:16:18.148Z,2.58
2018-08-17T01:18:45.958Z,2.60
2018-08-17T01:21:14.156Z,2.72
2018-08-17T01:23:41.769Z,2.98
2018-08-17T01:26:09.348Z,2.70
2018-08-17T01:28:36.925Z,2.70
2018-08-17T01:31:04.632Z,2.90
2018-08-17T01:33:32.317Z,2.95
2018-08-17T01:36:00.195Z,2.87
2018-08-17T01:38:27.840Z,3.05
2018-08-17T01:40:55.403Z,2.87
2018-08-17T01:43:22.991Z,3.08
2018-08-17T01:45:50.589Z,3.05
2018-08-17T01:48:18.149Z,2.80
2018-08-17T01:50:45.824Z,2.60
2018-08-17T01:53:13.396Z,2.25
2018-08-17T01:55:41.008Z,2.50
2018-08-17T01:58:09.741Z,2.50
2018-08-17T02:00:37.361Z,2.70
2018-08-17T02:03:05.010Z,2.70
2018-08-17T02:05:32.631Z,2.52
2018-08-17T02:08:00.203Z,2.40
2018-08-17T02:10:28.103Z,2.33
2018-08-17T02:12:55.654Z,3.00
2018-08-17T02:15:23.452Z,2.77
2018-08-17T02:17:51.052Z,2.85
2018-08-17T02:20:18.594Z,3.08
2018-08-17T02:22:46.157Z,3.20
2018-08-17T02:25:13.776Z,2.72
2018-08-17T02:27:41.369Z,2.50
2018-08-17T02:30:08.993Z,2.80
2018-08-17T02:32:36.561Z,2.60
2018-08-17T02:35:04.573Z,2.50
2018-08-17T02:37:32.259Z,2.70
2018-08-17T02:39:59.797Z,3.00
2018-08-17T02:42:27.387Z,3.10
2018-08-17T02:44:54.968Z,3.30
2018-08-17T02:47:22.544Z,3.37
2018-08-17T02:49:50.496Z,2.77
2018-08-17T02:52:18.080Z,3.20
2018-08-17T02:54:45.632Z,3.08
2018-08-17T02:57:13.591Z,3.00
2018-08-17T02:59:41.243Z,3.10
2018-08-17T03:02:09.185Z,2.98
2018-08-17T03:04:36.733Z,2.77
2018-08-17T03:07:04.361Z,2.98
2018-08-17T03:09:31.941Z,2.70
2018-08-17T03:11:59.500Z,2.80
2018-08-17T03:14:27.084Z,2.80
2018-08-17T03:16:54.647Z,2.60
2018-08-17T03:19:22.215Z,2.80
2018-08-17T03:21:49.817Z,2.90
2018-08-17T03:24:17.359Z,2.95
2018-08-17T03:26:44.913Z,3.30
2018-08-17T03:29:12.528Z,3.00
2018-08-17T03:31:40.083Z,3.47
2018-08-17T03:34:07.620Z,3.35
2018-08-17T03:36:35.216Z,3.70
2018-08-17T03:39:03.115Z,3.70
2018-08-17T03:41:30.664Z,3.30
2018-08-17T03:43:58.194Z,3.20
2018-08-17T03:46:25.830Z,3.35
2018-08-17T03:48:53.379Z,3.58
2018-08-17T03:51:20.944Z,3.47
2018-08-17T03:53:48.555Z,3.73
2018-08-17T03:56:16.143Z,3.62
2018-08-17T03:58:43.741Z,3.72
2018-08-17T04:01:11.527Z,3.70
2018-08-17T04:03:39.089Z,3.22
2018-08-17T04:06:06.720Z,3.20
2018-08-17T04:08:34.299Z,3.27
2018-08-17T04:11:01.831Z,3.10
2018-08-17T04:13:29.633Z,2.92
2018-08-17T04:15:57.452Z,3.27
2018-08-17T04:18:25.316Z,3.35
2018-08-17T04:20:53.124Z,3.65
2018-08-17T04:23:20.793Z,3.80
2018-08-17T04:25:48.544Z,3.57
2018-08-17T04:28:16.772Z,3.00
2018-08-17T04:30:44.641Z,3.12
2018-08-17T04:33:12.324Z,3.20
2018-08-17T04:35:40.001Z,3.15
2018-08-17T04:38:07.637Z,2.80
2018-08-17T04:40:35.424Z,2.90
2018-08-17T04:43:03.000Z,3.10
2018-08-17T04:45:30.588Z,2.92
2018-08-17T04:47:58.124Z,2.98
2018-08-17T04:50:25.707Z,2.50
2018-08-17T04:52:53.270Z,2.92
2018-08-17T04:55:20.836Z,2.65
2018-08-17T04:57:48.472Z,2.50
2018-08-17T05:00:16.018Z,2.45
2018-08-17T05:02:43.591Z,2.72
2018-08-17T05:05:11.192Z,2.85
2018-08-17T05:07:39.456Z,2.55
2018-08-17T05:10:07.864Z,2.65
2018-08-17T05:12:35.453Z,2.92
2018-08-17T05:15:03.107Z,2.57
2018-08-17T05:17:30.764Z,2.40
2018-08-17T05:19:58.425Z,2.40
2018-08-17T05:22:25.967Z,2.10
2018-08-17T05:24:53.551Z,2.10
2018-08-17T05:27:21.113Z,1.85
2018-08-17T05:29:48.723Z,2.15
2018-08-17T05:32:16.533Z,2.02
2018-08-17T05:34:44.092Z,2.35
2018-08-17T05:37:11.700Z,2.20
2018-08-17T05:39:39.240Z,2.12
2018-08-17T05:42:06.965Z,1.67
2018-08-17T05:44:34.879Z,1.90
2018-08-17T05:47:02.434Z,2.83
2018-08-17T05:49:30.304Z,2.05
2018-08-17T05:51:57.908Z,2.20
2018-08-17T05:54:25.548Z,1.77
2018-08-17T05:56:53.132Z,2.77
2018-08-17T05:59:20.691Z,1.98
2018-08-17T06:01:48.275Z,1.90
2018-08-17T06:04:15.853Z,2.10
2018-08-17T06:06:43.429Z,2.02
2018-08-17T06:09:11.064Z,1.85
2018-08-17T06:11:38.673Z,2.00
2018-08-17T06:14:13.276Z,1.82
2018-08-17T06:16:40.879Z,2.08
2018-08-17T06:19:08.584Z,2.17
2018-08-17T06:21:36.343Z,2.30
2018-08-17T06:24:04.043Z,2.22
2018-08-17T06:26:38.397Z,1.98
2018-08-17T06:29:06.049Z,1.77
2018-08-17T06:31:33.712Z,2.17
2018-08-17T06:34:01.375Z,2.00
2018-08-17T06:36:28.964Z,1.80
2018-08-17T06:38:56.588Z,1.77
2018-08-17T06:41:24.184Z,1.42
2018-08-17T06:43:51.727Z,1.60
2018-08-17T06:46:19.472Z,1.42
2018-08-17T06:48:47.097Z,1.50
2018-08-17T06:51:14.718Z,1.70
2018-08-17T06:53:42.371Z,1.90
2018-08-17T06:56:09.944Z,2.40
2018-08-17T06:58:37.801Z,2.12
2018-08-17T07:01:05.580Z,2.70
2018-08-17T07:03:33.189Z,2.67
2018-08-17T07:06:01.168Z,3.00
2018-08-17T07:08:28.752Z,3.12
2018-08-17T07:10:56.368Z,3.02
2018-08-17T07:13:24.039Z,3.30
2018-08-17T07:15:51.799Z,3.25
2018-08-17T07:18:20.255Z,2.80
2018-08-17T07:20:48.037Z,2.60
2018-08-17T07:23:16.014Z,2.85
2018-08-17T07:25:43.983Z,2.77
2018-08-17T07:28:11.635Z,2.33
2018-08-17T07:30:39.175Z,2.27
2018-08-17T07:33:06.834Z,3.58
2018-08-17T07:35:34.609Z,3.70
2018-08-17T07:38:02.245Z,3.10
2018-08-17T07:40:30.240Z,3.20
2018-08-17T07:42:58.282Z,3.42
2018-08-17T07:45:26.204Z,3.70
2018-08-17T07:47:54.264Z,3.10
2018-08-17T07:50:22.038Z,2.65
2018-08-17T07:52:49.897Z,2.45
2018-08-17T07:55:17.585Z,2.60
2018-08-17T07:57:45.243Z,3.10
2018-08-17T08:00:13.284Z,2.70
2018-08-17T08:02:40.911Z,2.70
2018-08-17T08:05:09.839Z,3.12
2018-08-17T08:07:38.033Z,2.22
2018-08-17T08:10:06.180Z,2.75
2018-08-17T08:12:34.263Z,2.70
2018-08-17T08:15:01.923Z,2.90
2018-08-17T08:17:29.729Z,2.40
2018-08-17T08:20:09.062Z,2.60
2018-08-17T08:22:37.508Z,2.27
2018-08-17T08:25:05.434Z,2.45
2018-08-17T08:27:34.528Z,2.40
2018-08-17T08:30:02.191Z,2.33
2018-08-17T08:32:30.925Z,1.80
2018-08-17T08:34:58.806Z,2.30
2018-08-17T08:37:26.408Z,2.40
2018-08-17T08:39:54.149Z,2.05
2018-08-17T08:42:21.743Z,2.90
2018-08-17T08:44:49.315Z,2.77
2018-08-17T08:47:16.887Z,3.02
2018-08-17T08:49:44.467Z,2.92
2018-08-17T08:52:11.995Z,2.72
2018-08-17T08:54:39.956Z,3.10
2018-08-17T08:57:07.601Z,2.65
2018-08-17T08:59:35.240Z,2.22
2018-08-17T09:02:03.760Z,2.90
2018-08-17T09:04:31.439Z,3.30
2018-08-17T09:06:59.220Z,3.25
2018-08-17T09:09:27.002Z,2.67
2018-08-17T09:11:54.684Z,2.17
2018-08-17T09:14:22.598Z,2.10
2018-08-17T09:16:50.191Z,1.87
2018-08-17T09:19:18.001Z,2.10
2018-08-17T09:21:45.689Z,1.80
2018-08-17T09:24:14.261Z,2.10
2018-08-17T09:26:41.976Z,1.80
2018-08-17T09:29:10.039Z,1.70
2018-08-17T09:31:37.632Z,1.75
2018-08-17T09:34:05.328Z,1.83
2018-08-17T09:36:33.361Z,2.00
2018-08-17T09:39:01.344Z,2.22
2018-08-17T09:41:28.958Z,2.08
2018-08-17T09:43:57.792Z,2.20
2018-08-17T09:46:25.517Z,1.52
2018-08-17T09:48:53.939Z,1.85
2018-08-17T09:51:21.782Z,2.00
2018-08-17T09:53:49.441Z,2.30
2018-08-17T09:56:17.080Z,2.00
2018-08-17T09:58:44.949Z,2.40
2018-08-17T10:01:19.481Z,2.62
2018-08-17T10:03:53.037Z,2.80
2018-08-17T10:06:27.369Z,2.60
2018-08-17T10:09:00.703Z,2.33
2018-08-17T10:11:28.630Z,2.10
2018-08-17T10:13:56.596Z,2.75
2018-08-17T10:16:24.389Z,3.00
2018-08-17T10:18:52.492Z,2.60
2018-08-17T10:21:20.307Z,2.98
2018-08-17T10:23:47.932Z,2.80
2018-08-17T10:26:15.561Z,3.12
2018-08-17T10:28:43.347Z,3.40
2018-08-17T10:31:11.677Z,3.67
2018-08-17T10:33:39.371Z,3.70
2018-08-17T10:36:13.741Z,3.85
2018-08-17T10:38:41.312Z,3.80
2018-08-17T10:41:09.005Z,3.45
2018-08-17T10:43:37.379Z,2.80
2018-08-17T10:46:05.281Z,3.10
2018-08-17T10:48:33.142Z,3.10
2018-08-17T10:51:00.844Z,2.98
2018-08-17T10:53:36.068Z,3.20
2018-08-17T10:56:03.974Z,2.77
2018-08-17T10:58:34.491Z,2.70
2018-08-17T11:01:02.163Z,2.60
2018-08-17T11:03:29.912Z,2.52
2018-08-17T11:05:57.481Z,2.40
2018-08-17T11:08:25.199Z,2.47
2018-08-17T11:10:52.831Z,2.75
2018-08-17T11:13:20.442Z,2.77
2018-08-17T11:15:48.015Z,2.40
2018-08-17T11:23:10.526Z,3.47
2018-08-17T11:25:38.636Z,3.17
2018-08-17T11:28:06.542Z,2.70
2018-08-17T11:30:34.674Z,2.80
2018-08-17T11:33:02.565Z,2.50
2018-08-17T11:35:30.389Z,2.90
2018-08-17T11:37:58.312Z,2.93
2018-08-17T11:40:26.159Z,2.60
2018-08-17T11:42:53.768Z,2.72
2018-08-17T11:45:24.543Z,2.45
2018-08-17T11:47:52.841Z,2.50
2018-08-17T11:50:21.508Z,2.30
2018-08-17T11:52:56.099Z,3.00
2018-08-17T11:55:24.852Z,2.87
2018-08-17T11:57:53.019Z,2.87
2018-08-17T12:00:21.262Z,3.22
2018-08-17T12:02:48.897Z,2.90
2018-08-17T12:05:16.504Z,3.22
2018-08-17T12:07:45.004Z,3.10
2018-08-17T12:10:12.638Z,4.03
2018-08-17T12:12:41.200Z,4.78
2018-08-17T12:15:09.916Z,4.72
2018-08-17T12:17:37.716Z,4.25
2018-08-17T12:20:05.504Z,4.60
2018-08-17T12:22:33.196Z,4.37
2018-08-17T12:25:01.282Z,3.98
2018-08-17T12:27:29.194Z,3.70
2018-08-17T12:29:56.845Z,3.55
2018-08-17T12:32:24.775Z,4.00
2018-08-17T12:34:52.459Z,3.92
2018-08-17T12:37:20.162Z,3.70
2018-08-17T12:39:47.979Z,3.50
2018-08-17T12:42:15.768Z,3.70
2018-08-17T12:44:43.380Z,3.27
2018-08-17T12:47:11.001Z,3.15
2018-08-17T12:49:38.730Z,2.95
2018-08-17T12:52:07.422Z,2.75
2018-08-17T12:54:35.305Z,3.40
2018-08-17T12:57:04.008Z,3.20
2018-08-17T12:59:32.629Z,3.02
2018-08-17T13:02:00.407Z,3.65
2018-08-17T13:04:28.392Z,3.08
2018-08-17T13:06:56.544Z,2.90
2018-08-17T13:09:24.077Z,2.90
2018-08-17T13:11:55.169Z,3.50
2018-08-17T13:14:23.511Z,3.17
2018-08-17T13:16:51.471Z,3.02
2018-08-17T13:19:19.155Z,2.58
2018-08-17T13:21:46.730Z,2.10
2018-08-17T13:24:14.345Z,2.05
2018-08-17T13:26:41.932Z,3.30
2018-08-17T13:29:09.564Z,3.20
2018-08-17T13:31:37.116Z,2.80
2018-08-17T13:34:04.817Z,3.80
2018-08-17T13:36:32.420Z,3.50
2018-08-17T13:39:00.151Z,3.37
2018-08-17T13:41:27.748Z,4.70
2018-08-17T13:43:55.370Z,4.10
2018-08-17T13:46:22.964Z,4.67
2018-08-17T13:48:50.559Z,4.30
2018-08-17T13:51:18.135Z,4.65
2018-08-17T13:53:45.713Z,4.62
2018-08-17T13:56:13.273Z,4.35
2018-08-17T13:58:40.919Z,4.60
2018-08-17T14:01:08.499Z,3.98
2018-08-17T14:03:36.222Z,3.40
2018-08-17T14:06:04.252Z,3.60
2018-08-17T14:08:31.817Z,4.55
2018-08-17T14:10:59.492Z,3.98
2018-08-17T14:13:27.159Z,3.72
2018-08-17T14:15:54.844Z,3.58
2018-08-17T14:18:22.541Z,5.12
2018-08-17T14:20:50.395Z,5.30
2018-08-17T14:23:18.001Z,4.90
2018-08-17T14:25:45.528Z,4.77
2018-08-17T14:28:13.429Z,5.05
2018-08-17T14:30:40.988Z,4.58
2018-08-17T14:33:09.015Z,4.60
2018-08-17T14:35:36.594Z,4.80
2018-08-17T14:38:04.231Z,4.40
2018-08-17T14:40:31.950Z,4.30
2018-08-17T14:43:00.449Z,4.15
2018-08-17T14:45:28.309Z,3.80
2018-08-17T14:47:56.059Z,4.78
2018-08-17T14:50:23.746Z,4.50
2018-08-17T14:52:51.569Z,4.40
2018-08-17T14:55:19.516Z,3.80
2018-08-17T14:57:47.155Z,3.27
2018-08-17T15:00:15.121Z,2.30
2018-08-17T15:02:43.042Z,2.75
2018-08-17T15:05:13.069Z,3.12
2018-08-17T15:07:41.063Z,3.27
2018-08-17T15:10:10.668Z,3.80
2018-08-17T15:12:38.469Z,4.00
2018-08-17T15:15:06.573Z,4.28
2018-08-17T15:17:34.233Z,3.90
2018-08-17T15:20:01.901Z,4.28
2018-08-17T15:22:29.584Z,4.00
2018-08-17T15:24:57.338Z,3.92
2018-08-17T15:27:25.041Z,5.05
2018-08-17T15:29:52.716Z,4.30
2018-08-17T15:32:20.465Z,4.35
2018-08-17T15:34:48.092Z,4.05
2018-08-17T15:37:16.385Z,5.20
2018-08-17T15:39:44.644Z,4.62
2018-08-17T15:42:12.345Z,4.47
2018-08-17T15:44:40.181Z,5.53
2018-08-17T15:47:07.853Z,5.47
2018-08-17T15:49:36.333Z,6.00
2018-08-17T15:52:05.415Z,5.45
2018-08-17T15:54:34.317Z,4.92
2018-08-17T15:57:02.090Z,4.33
2018-08-17T15:59:29.949Z,4.08
2018-08-17T16:01:58.172Z,4.58
2018-08-17T16:04:25.884Z,4.70
2018-08-17T16:06:53.666Z,5.00
2018-08-17T16:09:21.264Z,4.62
2018-08-17T16:11:50.492Z,3.83
2018-08-17T16:14:18.351Z,4.70
2018-08-17T16:16:46.542Z,4.20
2018-08-17T16:19:14.228Z,4.10
2018-08-17T16:21:41.844Z,4.28
2018-08-17T16:24:09.778Z,4.03
2018-08-17T16:26:37.491Z,3.72
2018-08-17T16:29:05.673Z,3.33
2018-08-17T16:31:35.931Z,3.12
2018-08-17T16:34:03.874Z,3.30
2018-08-17T16:36:33.815Z,3.58
2018-08-17T16:39:02.622Z,4.33
2018-08-17T16:41:30.273Z,4.20
2018-08-17T16:43:58.542Z,3.65
2018-08-17T16:46:27.210Z,3.57
2018-08-17T16:48:54.915Z,3.80
2018-08-17T16:51:22.578Z,3.17
2018-08-17T16:53:50.416Z,3.75
2018-08-17T16:56:18.386Z,4.40
2018-08-17T16:58:46.364Z,3.75
2018-08-17T17:01:14.162Z,3.50
2018-08-17T17:03:41.927Z,3.72
2018-08-17T17:06:10.070Z,3.62
2018-08-17T17:08:37.768Z,3.95
2018-08-17T17:11:05.394Z,3.95
2018-08-17T17:13:38.072Z,4.53
2018-08-17T17:16:05.909Z,3.75
2018-08-17T17:18:34.302Z,4.03
2018-08-17T17:21:02.447Z,5.70
2018-08-17T17:23:30.104Z,6.60
2018-08-17T17:25:57.753Z,7.15
2018-08-17T17:28:32.239Z,5.80
2018-08-17T17:30:59.996Z,4.62
2018-08-17T17:33:27.564Z,4.28
2018-08-17T17:35:55.111Z,4.78
2018-08-17T17:38:23.354Z,6.40
2018-08-17T17:40:51.034Z,5.67
2018-08-17T17:43:18.782Z,5.33
2018-08-17T17:45:46.612Z,5.30
2018-08-17T17:48:14.287Z,5.87
2018-08-17T17:50:41.875Z,6.45
2018-08-17T17:53:09.612Z,5.40
2018-08-17T17:55:43.954Z,5.15
2018-08-17T17:58:11.864Z,4.70
2018-08-17T18:00:40.992Z,4.95
2018-08-17T18:03:08.659Z,6.00
2018-08-17T18:05:36.277Z,4.90
2018-08-17T18:08:09.391Z,5.20
2018-08-17T18:10:37.535Z,5.42
2018-08-17T18:13:05.202Z,4.95
2018-08-17T18:15:32.986Z,4.45
2018-08-17T18:18:00.789Z,4.28
2018-08-17T18:20:28.559Z,3.92
2018-08-17T18:22:56.314Z,4.10
2018-08-17T18:25:24.105Z,5.30
2018-08-17T18:27:51.925Z,5.75
2018-08-17T18:30:20.160Z,5.55
2018-08-17T18:32:47.772Z,4.97
2018-08-17T18:35:15.744Z,4.60
2018-08-17T18:37:43.835Z,3.58
2018-08-17T18:40:11.935Z,3.90
2018-08-17T18:42:39.700Z,5.00
2018-08-17T18:45:07.816Z,5.05
2018-08-17T18:47:36.243Z,4.83
2018-08-17T18:50:04.820Z,4.87
2018-08-17T18:52:32.537Z,4.20
2018-08-17T18:55:00.097Z,3.80
2018-08-17T18:57:27.636Z,4.05
2018-08-17T18:59:55.213Z,3.45
2018-08-17T19:02:23.371Z,5.00
2018-08-17T19:04:51.085Z,6.65
2018-08-17T19:07:19.229Z,7.87
2018-08-17T19:09:47.053Z,7.03
2018-08-17T19:12:14.652Z,6.80
2018-08-17T19:14:44.767Z,8.43
2018-08-17T19:17:33.819Z,10.00
2018-08-17T19:20:01.457Z,11.73
2018-08-17T19:22:34.696Z,11.60
2018-08-17T19:25:02.379Z,11.95
2018-08-17T19:27:34.372Z,12.47
2018-08-17T19:30:03.145Z,12.82
2018-08-17T19:32:31.001Z,11.08
2018-08-17T19:34:58.560Z,12.00
2018-08-17T19:37:26.181Z,11.83
2018-08-17T19:39:53.970Z,10.60
2018-08-17T19:42:21.618Z,10.30
2018-08-17T19:44:49.195Z,10.15
2018-08-17T19:47:16.808Z,10.98
2018-08-17T19:49:44.389Z,10.48
2018-08-17T19:52:12.195Z,9.98
2018-08-17T19:54:40.023Z,9.60
2018-08-17T19:57:07.571Z,10.18
2018-08-17T19:59:35.244Z,9.85
2018-08-17T20:02:02.973Z,10.65
2018-08-17T20:04:30.669Z,9.43
2018-08-17T20:06:58.954Z,8.70
2018-08-17T20:09:26.568Z,8.75
2018-08-17T20:11:54.269Z,8.50
2018-08-17T20:14:21.886Z,8.78
2018-08-17T20:16:49.595Z,8.80
2018-08-17T20:19:17.510Z,9.45
2018-08-17T20:21:45.091Z,8.85
2018-08-17T20:24:13.105Z,8.18
2018-08-17T20:26:41.141Z,8.10
2018-08-17T20:29:08.384Z,7.47
2018-08-17T20:31:43.987Z,7.47
2018-08-17T20:34:11.587Z,7.25
2018-08-17T20:36:39.208Z,6.37
2018-08-17T20:39:09.654Z,6.33
2018-08-17T20:41:37.260Z,5.70
2018-08-17T20:44:05.181Z,6.53
2018-08-17T20:46:32.796Z,7.20
2018-08-17T20:49:00.648Z,7.15
2018-08-17T20:51:28.216Z,7.10
2018-08-17T20:53:59.171Z,6.55
2018-08-17T20:56:27.144Z,5.53
2018-08-17T20:58:54.859Z,6.08
2018-08-17T21:01:22.759Z,6.62
2018-08-17T21:03:50.392Z,6.87
2018-08-17T21:06:18.079Z,8.88
2018-08-17T21:08:45.667Z,7.70
2018-08-17T21:11:13.248Z,7.22
2018-08-17T21:13:40.949Z,7.80
2018-08-17T21:16:08.870Z,8.58
2018-08-17T21:18:36.492Z,8.47
2018-08-17T21:21:04.172Z,7.60
2018-08-17T21:23:32.594Z,7.75
2018-08-17T21:26:00.203Z,6.85
2018-08-17T21:28:27.753Z,6.00
2018-08-17T21:30:55.391Z,5.58
2018-08-17T21:33:22.988Z,5.42
2018-08-17T21:35:50.540Z,6.30
2018-08-17T21:38:18.243Z,7.80
2018-08-17T21:40:45.796Z,8.60
2018-08-17T21:43:13.424Z,9.38
2018-08-17T21:45:44.208Z,8.38
2018-08-17T21:48:21.037Z,7.47
2018-08-17T21:50:48.620Z,8.13
2018-08-17T21:53:16.174Z,8.83
2018-08-17T21:55:43.736Z,10.10
2018-08-17T21:58:11.373Z,10.80
2018-08-17T22:00:38.983Z,10.85
2018-08-17T22:03:12.820Z,11.12
2018-08-17T22:05:40.424Z,11.57
2018-08-17T22:08:08.227Z,10.43
2018-08-17T22:10:36.758Z,11.57
2018-08-17T22:13:04.563Z,11.55
2018-08-17T22:15:32.123Z,10.32
2018-08-17T22:17:59.848Z,8.65
2018-08-17T22:20:27.464Z,7.97
2018-08-17T22:22:55.419Z,7.72
2018-08-17T22:25:23.088Z,7.67
2018-08-17T22:27:50.623Z,8.47
2018-08-17T22:30:23.552Z,8.80
2018-08-17T22:32:51.175Z,9.70
2018-08-17T22:35:19.401Z,10.10
2018-08-17T22:37:47.074Z,9.43
2018-08-17T22:40:14.962Z,8.93
2018-08-17T22:42:44.139Z,9.85
2018-08-17T22:45:12.024Z,9.18
2018-08-17T22:47:39.772Z,9.85
2018-08-17T22:50:08.353Z,8.93
2018-08-17T22:52:36.136Z,9.98
2018-08-17T22:55:07.263Z,9.75
2018-08-17T22:57:34.891Z,9.40
2018-08-17T23:00:30.391Z,9.03
2018-08-17T23:03:00.493Z,7.50
2018-08-17T23:05:29.696Z,9.68
2018-08-17T23:07:57.487Z,9.75
2018-08-17T23:10:26.160Z,10.53
2018-08-17T23:12:54.389Z,10.13
2018-08-17T23:15:22.088Z,11.93
2018-08-17T23:17:51.933Z,12.30
2018-08-17T23:20:25.229Z,10.58
2018-08-17T23:22:57.060Z,17.17
2018-08-17T23:25:24.756Z,15.88
2018-08-17T23:27:53.815Z,16.07
2018-08-17T23:30:22.448Z,16.85
2018-08-17T23:32:50.192Z,15.43
2018-08-17T23:35:18.201Z,17.60
2018-08-17T23:37:45.914Z,17.02
2018-08-17T23:40:13.740Z,15.25
2018-08-17T23:42:42.386Z,17.37
2018-08-17T23:45:12.322Z,18.40
2018-08-17T23:47:40.280Z,18.52
2018-08-17T23:50:09.508Z,17.82
2018-08-17T23:52:38.489Z,18.55
2018-08-17T23:55:07.524Z,17.15
2018-08-17T23:57:35.362Z,18.73
